Time;durP1;ratioP1;P1;durP2;ratioP2;P2;SDS_P1;SDS_P2;PMS_P1;PMS_P2;Temp;Humidity;BMP_temperature;BMP_pressure;BME280_temperature;BME280_humidity;BME280_pressure;Samples;Min_cycle;Max_cycle;Signal;HPM_P1;HPM_P2
2021/04/15 00:02:24;;;;;;;18.60;9.18;;;;;;;10.64;89.81;100923.86;1762312;81;21178;-75
2021/04/15 00:04:57;;;;;;;16.73;9.50;;;;;;;10.58;89.56;100929.61;1683166;84;21230;-73
2021/04/15 00:07:33;;;;;;;16.87;9.88;;;;;;;10.50;89.46;100928.63;1729636;83;21740;-73
2021/04/15 00:10:10;;;;;;;13.78;8.40;;;;;;;10.47;89.52;100925.81;1702916;84;21199;-74
2021/04/15 00:12:47;;;;;;;16.97;10.18;;;;;;;10.46;89.56;100925.53;1702876;84;21253;-75
2021/04/15 00:15:22;;;;;;;13.43;9.23;;;;;;;10.45;89.84;100922.46;1704448;83;21328;-73
2021/04/15 00:17:57;;;;;;;13.13;9.25;;;;;;;10.45;89.50;100925.80;1733841;83;21357;-72
2021/04/15 00:20:30;;;;;;;14.87;8.03;;;;;;;10.34;89.12;100922.57;1702863;84;21221;-75
2021/04/15 00:23:03;;;;;;;12.98;7.70;;;;;;;10.28;89.29;100927.18;1678346;84;21716;-76
2021/04/15 00:25:37;;;;;;;14.20;8.57;;;;;;;10.30;89.42;100923.62;1673396;84;21340;-75
2021/04/15 00:28:11;;;;;;;10.85;8.95;;;;;;;10.28;89.31;100917.47;1697757;84;21357;-75
2021/04/15 00:30:43;;;;;;;11.30;8.28;;;;;;;10.32;89.89;100911.72;1707288;84;21835;-74
2021/04/15 00:33:16;;;;;;;;;;;;;;;10.29;89.09;100914.98;1719328;82;21230;-73
2021/04/15 00:35:49;;;;;;;9.33;7.90;;;;;;;10.27;89.05;100909.42;1701020;84;20185;-75
2021/04/15 00:38:24;;;;;;;10.53;7.78;;;;;;;10.26;88.98;100905.79;1700796;84;21360;-75
2021/04/15 00:40:57;;;;;;;11.28;7.45;;;;;;;10.25;88.96;100912.44;1768303;80;21340;-72
2021/04/15 00:43:34;;;;;;;13.80;8.80;;;;;;;10.27;89.00;100910.81;1764388;81;21214;-71
2021/04/15 00:46:31;;;;;;;14.00;7.35;;;;;;;10.26;88.94;100902.16;1733882;82;21348;-74
2021/04/15 00:49:05;;;;;;;11.15;7.83;;;;;;;10.30;88.84;100908.36;1682481;85;21396;-69
2021/04/15 00:51:47;;;;;;;;;;;;;;;10.31;88.58;100898.09;1715837;84;21332;-70
2021/04/15 00:54:49;;;;;;;13.90;7.47;;;;;;;10.33;88.77;100896.73;1712268;82;20240;-73
2021/04/15 00:57:29;;;;;;;13.30;6.75;;;;;;;10.29;88.47;100894.73;1706713;84;21396;-73
2021/04/15 01:00:04;;;;;;;14.68;7.90;;;;;;;10.32;88.51;100896.45;1692927;84;21239;-72
2021/04/15 01:02:37;;;;;;;11.88;7.20;;;;;;;10.32;88.47;100889.52;1711650;83;21337;-71
2021/04/15 01:05:25;;;;;;;19.23;8.10;;;;;;;10.32;88.37;100894.21;1708608;84;21174;-70
2021/04/15 01:07:58;;;;;;;9.95;7.20;;;;;;;10.30;88.31;100894.48;1710714;84;21407;-72
2021/04/15 01:10:32;;;;;;;12.37;7.53;;;;;;;10.32;88.12;100883.11;1686525;84;21349;-73
2021/04/15 01:13:09;;;;;;;14.75;7.50;;;;;;;10.37;88.50;100885.97;1678861;85;21358;-72
2021/04/15 01:16:01;;;;;;;14.35;8.08;;;;;;;10.42;88.91;100883.27;1687598;84;22201;-73
2021/04/15 01:18:51;;;;;;;20.48;9.25;;;;;;;10.44;88.63;100888.02;1685358;83;21740;-73
2021/04/15 01:22:10;;;;;;;13.62;7.85;;;;;;;10.41;88.02;100876.87;1688178;84;21194;-75
2021/04/15 01:24:49;;;;;;;20.32;9.95;;;;;;;10.46;87.94;100880.30;1677239;85;21278;-72
2021/04/15 01:27:50;;;;;;;17.40;8.85;;;;;;;10.40;87.64;100876.58;1697621;83;21336;-75
2021/04/15 01:30:46;;;;;;;18.60;9.70;;;;;;;10.37;87.54;100874.33;1687511;84;21345;-72
2021/04/15 01:33:30;;;;;;;16.55;9.48;;;;;;;10.36;87.53;100864.87;1699886;84;21183;-71
2021/04/15 01:36:20;;;;;;;22.27;9.90;;;;;;;10.45;87.75;100864.73;1688967;84;21219;-71
2021/04/15 01:39:06;;;;;;;15.63;9.78;;;;;;;10.49;87.51;100854.25;1691582;84;21292;-72
2021/04/15 01:41:58;;;;;;;14.63;9.08;;;;;;;10.46;87.26;100863.07;1692607;84;21214;-76
2021/04/15 01:44:48;;;;;;;18.37;9.65;;;;;;;10.49;87.39;100857.02;1699608;83;21411;-71
2021/04/15 01:47:28;;;;;;;17.10;9.98;;;;;;;10.53;87.22;100854.00;1706455;83;21349;-77
2021/04/15 01:50:09;;;;;;;20.55;10.28;;;;;;;10.60;87.30;100855.22;1712819;83;21230;-75
2021/04/15 01:52:41;;;;;;;17.45;10.80;;;;;;;10.70;87.42;100849.81;1682365;85;21352;-74
2021/04/15 01:55:28;;;;;;;17.02;9.45;;;;;;;10.78;87.31;100846.05;1712927;83;21834;-74
2021/04/15 01:58:23;;;;;;;21.35;8.23;;;;;;;10.81;86.96;100852.45;1768409;81;21895;-74
2021/04/15 02:01:03;;;;;;;19.00;9.40;;;;;;;10.83;86.69;100847.47;1768666;81;21335;-73
2021/04/15 02:03:37;;;;;;;11.85;7.78;;;;;;;10.80;86.36;100851.32;1768320;81;21920;-74
2021/04/15 02:06:19;;;;;;;17.35;8.93;;;;;;;10.76;86.51;100849.61;1768462;81;21329;-74
2021/04/15 02:08:55;;;;;;;11.25;7.65;;;;;;;10.64;86.17;100854.45;1741178;81;21167;-74
2021/04/15 02:11:49;;;;;;;15.85;6.90;;;;;;;10.50;86.45;100853.14;1758187;81;21194;-75
2021/04/15 02:14:29;;;;;;;17.48;9.75;;;;;;;10.50;86.63;100853.69;1765972;80;21422;-72
2021/04/15 02:17:05;;;;;;;14.43;7.65;;;;;;;10.36;86.72;100849.06;1768422;81;21708;-73
2021/04/15 02:19:50;;;;;;;12.98;8.50;;;;;;;10.31;87.05;100850.91;1745786;81;21806;-74
2021/04/15 02:22:41;;;;;;;15.32;8.25;;;;;;;10.24;87.27;100847.48;1733738;82;21221;-73
2021/04/15 02:25:34;;;;;;;15.78;8.93;;;;;;;10.23;87.50;100848.05;1731657;83;21369;-73
2021/04/15 02:28:28;;;;;;;13.98;9.53;;;;;;;10.28;88.04;100845.89;1703711;84;21265;-73
2021/04/15 02:31:18;;;;;;;14.55;8.40;;;;;;;10.38;88.48;100838.54;1730538;82;21223;-74
2021/04/15 02:34:04;;;;;;;17.30;8.70;;;;;;;10.52;88.59;100844.57;1691129;83;21262;-74
2021/04/15 02:36:51;;;;;;;12.60;8.55;;;;;;;10.60;88.12;100840.80;1687880;84;21851;-72
2021/04/15 02:39:42;;;;;;;13.78;8.70;;;;;;;10.62;88.04;100841.38;1706255;84;21388;-72
2021/04/15 02:42:23;;;;;;;10.35;7.50;;;;;;;10.63;88.20;100835.26;1679807;84;21750;-73
2021/04/15 02:45:00;;;;;;;14.15;8.88;;;;;;;10.70;88.32;100836.75;1684065;84;21367;-73
2021/04/15 02:47:39;;;;;;;13.35;8.75;;;;;;;10.68;87.80;100843.13;1674870;84;21458;-73
2021/04/15 02:50:14;;;;;;;13.25;8.43;;;;;;;10.63;87.61;100838.89;1704381;84;21314;-73
2021/04/15 02:52:49;;;;;;;15.65;10.98;;;;;;;10.48;87.60;100834.53;1704728;83;21397;-71
2021/04/15 02:55:24;;;;;;;14.80;10.70;;;;;;;10.36;88.04;100839.36;1729236;82;21345;-71
2021/04/15 02:58:07;;;;;;;17.70;11.80;;;;;;;10.27;88.46;100838.66;1730612;82;21411;-70
2021/04/15 03:00:40;;;;;;;15.17;9.97;;;;;;;10.15;88.92;100838.74;1729466;83;21333;-73
2021/04/15 03:03:17;;;;;;;15.13;10.82;;;;;;;10.04;89.44;100840.23;1730368;82;21392;-73
2021/04/15 03:05:54;;;;;;;15.88;11.38;;;;;;;9.98;89.79;100837.88;1729946;83;21847;-72
2021/04/15 03:08:27;;;;;;;18.67;10.63;;;;;;;9.98;90.15;100842.04;1730195;82;21546;-74
2021/04/15 03:11:20;;;;;;;11.93;8.78;;;;;;;9.98;90.24;100834.28;1723895;82;21564;-72
2021/04/15 03:13:56;;;;;;;15.72;10.68;;;;;;;9.99;90.35;100841.51;1688103;84;21357;-71
2021/04/15 03:16:34;;;;;;;14.40;10.53;;;;;;;9.98;90.45;100850.36;1705161;83;21720;-74
2021/04/15 03:19:15;;;;;;;18.92;11.48;;;;;;;9.97;90.58;100850.07;1690439;83;21190;-73
2021/04/15 03:22:11;;;;;;;14.68;10.23;;;;;;;10.00;90.71;100853.74;1713559;82;21211;-70
2021/04/15 03:24:46;;;;;;;15.18;10.68;;;;;;;9.99;90.64;100861.77;1712853;84;21929;-72
2021/04/15 03:27:43;;;;;;;17.98;10.98;;;;;;;10.00;90.68;100861.20;1699101;84;21344;-73
2021/04/15 03:30:30;;;;;;;19.77;12.28;;;;;;;9.99;90.73;100857.61;1694308;82;21894;-72
2021/04/15 03:33:09;;;;;;;15.03;9.73;;;;;;;9.97;90.75;100856.19;1700670;84;21214;-73
2021/04/15 03:36:01;;;;;;;16.30;11.22;;;;;;;9.97;90.80;100858.39;1708558;84;21171;-72
2021/04/15 03:38:40;;;;;;;17.23;10.32;;;;;;;10.02;90.99;100861.78;1713659;83;21364;-71
2021/04/15 03:41:17;;;;;;;15.88;10.85;;;;;;;10.08;90.94;100856.11;1713584;82;21862;-73
2021/04/15 03:43:58;;;;;;;16.07;9.43;;;;;;;10.12;90.83;100853.67;1713635;82;21353;-72
2021/04/15 03:46:58;;;;;;;19.62;10.10;;;;;;;10.17;90.71;100859.30;1708834;83;21352;-73
2021/04/15 03:49:56;;;;;;;16.75;10.03;;;;;;;10.18;90.58;100853.51;1684693;85;21812;-73
2021/04/15 03:52:38;;;;;;;16.17;9.80;;;;;;;10.19;90.66;100857.96;1685298;85;21218;-73
2021/04/15 03:55:25;;;;;;;14.00;8.68;;;;;;;10.22;90.62;100864.37;1699874;83;21336;-73
2021/04/15 03:58:14;;;;;;;15.85;9.55;;;;;;;10.27;90.66;100865.84;1708721;82;21917;-74
2021/04/15 04:00:56;;;;;;;12.20;9.18;;;;;;;10.33;90.60;100875.92;1697208;82;21218;-74
2021/04/15 04:03:29;;;;;;;15.35;10.45;;;;;;;10.38;90.37;100873.77;1684930;85;21336;-74
2021/04/15 04:06:15;;;;;;;15.78;10.38;;;;;;;10.39;90.30;100869.36;1708798;83;21229;-73
2021/04/15 04:08:52;;;;;;;18.98;12.28;;;;;;;10.39;90.13;100878.25;1717328;83;21259;-73
2021/04/15 04:11:32;;;;;;;17.60;12.30;;;;;;;10.37;90.03;100875.72;1716783;83;21202;-75
2021/04/15 04:14:10;;;;;;;16.97;12.03;;;;;;;10.40;90.16;100884.09;1702791;83;21748;-73
2021/04/15 04:16:53;;;;;;;19.02;11.68;;;;;;;10.42;90.13;100886.05;1682256;83;21357;-71
2021/04/15 04:19:42;;;;;;;19.25;11.25;;;;;;;10.40;90.00;100886.86;1689360;83;21751;-74
2021/04/15 04:22:44;;;;;;;15.00;10.15;;;;;;;10.42;89.99;100883.27;1672699;85;21253;-73
2021/04/15 04:25:28;;;;;;;19.80;12.68;;;;;;;10.46;90.05;100889.44;1674943;83;21242;-73
2021/04/15 04:28:18;;;;;;;19.52;13.18;;;;;;;10.58;90.12;100888.79;1707915;83;21340;-68
2021/04/15 04:31:08;;;;;;;15.80;10.60;;;;;;;10.65;89.92;100885.27;1735895;82;21351;-70
2021/04/15 04:33:47;;;;;;;11.40;8.80;;;;;;;10.71;89.66;100888.41;1711332;82;21421;-71
2021/04/15 04:36:20;;;;;;;12.75;9.10;;;;;;;10.69;89.28;100889.23;1657839;85;21285;-71
2021/04/15 04:38:57;;;;;;;13.03;8.78;;;;;;;10.64;89.28;100896.09;1653426;86;21440;-72
2021/04/15 04:42:02;;;;;;;11.53;8.00;;;;;;;10.61;89.23;100894.37;1642717;84;21318;-72
2021/04/15 04:44:52;;;;;;;8.13;6.47;;;;;;;10.60;89.27;100896.87;1670321;84;21375;-74
2021/04/15 04:47:49;;;;;;;11.80;8.28;;;;;;;10.63;89.36;100899.97;1683823;85;21218;-75
2021/04/15 04:50:38;;;;;;;12.68;8.68;;;;;;;10.70;89.31;100901.19;1683319;84;21234;-73
2021/04/15 04:53:15;;;;;;;12.40;8.50;;;;;;;10.78;89.30;100900.73;1678239;85;21309;-74
2021/04/15 04:56:16;;;;;;;11.53;8.53;;;;;;;10.85;88.88;100908.33;1685383;84;21388;-74
2021/04/15 04:58:54;;;;;;;13.53;10.23;;;;;;;10.87;88.49;100907.52;1682769;84;21200;-72
2021/04/15 05:01:27;;;;;;;16.50;11.55;;;;;;;10.88;88.33;100912.00;1713096;83;21352;-74
2021/04/15 05:04:02;;;;;;;13.20;10.03;;;;;;;10.85;88.41;100909.19;1731904;83;21341;-72
2021/04/15 05:06:36;;;;;;;;;;;;;;;10.89;88.44;100909.50;1707873;83;21767;-73
2021/04/15 05:09:30;;;;;;;17.92;9.93;;;;;;;10.88;88.25;100912.82;1714221;82;20292;-71
2021/04/15 05:12:05;;;;;;;13.70;9.13;;;;;;;10.88;88.26;100912.00;1701848;83;21230;-75
2021/04/15 05:14:40;;;;;;;15.83;9.78;;;;;;;10.90;88.46;100917.55;1693601;83;21230;-71
2021/04/15 05:17:26;;;;;;;18.73;10.45;;;;;;;11.01;88.49;100914.39;1700803;83;21376;-75
2021/04/15 05:20:04;;;;;;;13.53;10.10;;;;;;;11.08;88.10;100919.20;1707425;83;21250;-75
2021/04/15 05:23:03;;;;;;;14.50;9.48;;;;;;;11.10;87.93;100922.02;1698625;82;21736;-71
2021/04/15 05:25:46;;;;;;;13.70;9.78;;;;;;;11.12;87.82;100926.75;1700580;83;21249;-72
2021/04/15 05:28:19;;;;;;;16.87;10.48;;;;;;;11.18;87.83;100933.23;1723294;81;21351;-72
2021/04/15 05:30:52;;;;;;;13.93;11.05;;;;;;;11.19;87.62;100934.34;1716297;83;21824;-71
2021/04/15 05:33:26;;;;;;;11.78;9.15;;;;;;;11.20;87.42;100929.07;1740232;81;21177;-71
2021/04/15 05:36:30;;;;;;;13.90;9.58;;;;;;;11.20;87.37;100933.81;1761561;81;21468;-70
2021/04/15 05:39:04;;;;;;;15.70;9.63;;;;;;;11.21;87.38;100928.53;1744421;82;21388;-71
2021/04/15 05:42:10;;;;;;;27.93;12.43;;;;;;;11.26;87.38;100936.38;1750475;81;21168;-70
2021/04/15 05:44:48;;;;;;;14.55;10.03;;;;;;;11.27;87.40;100936.69;1754835;81;21716;-71
2021/04/15 05:47:37;;;;;;;15.85;9.20;;;;;;;11.34;87.42;100937.33;1754778;81;21263;-72
2021/04/15 05:50:23;;;;;;;19.23;10.10;;;;;;;11.40;87.24;100938.22;1750841;81;21950;-74
2021/04/15 05:53:00;;;;;;;17.00;9.13;;;;;;;11.44;87.11;100939.39;1746570;81;21702;-71
2021/04/15 05:55:43;;;;;;;15.08;9.75;;;;;;;11.46;86.99;100942.20;1745984;82;21891;-71
2021/04/15 05:58:29;;;;;;;15.05;9.95;;;;;;;11.54;86.97;100945.05;1754051;81;21745;-72
2021/04/15 06:01:09;;;;;;;15.60;9.00;;;;;;;11.56;86.68;100944.26;1752839;82;21184;-71
2021/04/15 06:03:58;;;;;;;21.70;9.48;;;;;;;11.58;86.42;100943.44;1761774;81;21824;-71
2021/04/15 06:06:38;;;;;;;18.35;11.20;;;;;;;11.59;86.36;100943.22;1737865;81;21333;-71
2021/04/15 06:09:10;;;;;;;15.95;10.88;;;;;;;11.60;86.02;100949.06;1763886;81;21270;-70
2021/04/15 06:12:13;;;;;;;24.23;14.20;;;;;;;11.69;85.91;100951.65;1720514;82;21767;-73
2021/04/15 06:14:56;;;;;;;20.62;12.90;;;;;;;11.74;85.70;100954.49;1743878;82;22642;-70
2021/04/15 06:17:43;;;;;;;19.27;10.85;;;;;;;11.78;85.46;100957.05;1749891;81;21258;-72
2021/04/15 06:20:38;;;;;;;21.52;12.75;;;;;;;11.83;85.32;100945.13;1760415;81;21935;-73
2021/04/15 06:23:25;;;;;;;17.98;12.03;;;;;;;11.85;85.11;100960.45;1764200;81;21384;-73
2021/04/15 06:25:58;;;;;;;22.37;14.10;;;;;;;11.90;85.04;100964.69;1735167;82;21246;-73
2021/04/15 06:28:39;;;;;;;22.82;13.78;;;;;;;11.93;85.07;100961.37;1771468;80;21933;-72
2021/04/15 06:31:31;;;;;;;20.72;12.63;;;;;;;11.93;84.91;100964.16;1755854;81;21901;-70
2021/04/15 06:34:06;;;;;;;25.65;14.80;;;;;;;11.95;84.81;100969.46;1758079;81;21331;-73
2021/04/15 06:36:55;;;;;;;28.30;15.95;;;;;;;11.94;84.56;100965.86;1756747;81;21269;-71
2021/04/15 06:39:40;;;;;;;23.18;15.93;;;;;;;11.96;84.68;100965.57;1748889;81;21506;-71
2021/04/15 06:42:35;;;;;;;18.75;13.03;;;;;;;11.97;84.54;100969.48;1749588;81;21355;-71
2021/04/15 06:45:37;;;;;;;18.82;12.58;;;;;;;12.01;84.52;100969.27;1750500;81;21236;-72
2021/04/15 06:48:43;;;;;;;21.95;14.13;;;;;;;12.05;84.21;100975.96;1740229;81;21234;-73
2021/04/15 06:51:38;;;;;;;20.27;13.98;;;;;;;12.16;84.41;100976.36;1774992;80;21233;-74
2021/04/15 06:54:38;;;;;;;18.65;14.03;;;;;;;12.29;84.22;100978.70;1783568;80;21194;-72
2021/04/15 06:57:44;;;;;;;21.97;12.50;;;;;;;12.39;83.78;100983.52;1775267;80;21329;-70
2021/04/15 07:00:33;;;;;;;15.95;11.97;;;;;;;12.53;83.65;100980.02;1776481;80;21206;-72
2021/04/15 07:03:36;;;;;;;17.07;11.05;;;;;;;12.65;83.44;100983.46;1785244;80;21328;-70
2021/04/15 07:06:55;;;;;;;18.20;11.90;;;;;;;12.77;83.00;100991.08;1783669;80;21231;-71
2021/04/15 07:09:41;;;;;;;21.15;14.00;;;;;;;12.87;82.44;100995.34;1773861;80;21352;-72
2021/04/15 07:12:49;;;;;;;18.17;11.08;;;;;;;12.98;82.01;100989.30;1781661;80;21281;-73
2021/04/15 07:16:01;;;;;;;17.55;11.22;;;;;;;13.05;81.44;100992.14;1775522;80;21194;-73
2021/04/15 07:18:58;;;;;;;24.85;16.17;;;;;;;12.99;80.50;100998.80;1772013;80;21214;-71
2021/04/15 07:21:59;;;;;;;23.67;13.98;;;;;;;12.91;80.35;100999.81;1770796;80;21699;-73
2021/04/15 07:25:02;;;;;;;24.12;14.98;;;;;;;12.92;80.20;100999.56;1778246;80;21380;-71
2021/04/15 07:28:03;;;;;;;24.02;15.35;;;;;;;12.94;79.92;100992.30;1776028;80;21230;-74
2021/04/15 07:31:22;;;;;;;17.48;12.50;;;;;;;12.97;79.36;101001.00;1787262;78;21339;-72
2021/04/15 07:34:18;;;;;;;17.98;10.63;;;;;;;13.05;79.37;101000.52;1809781;78;21868;-70
2021/04/15 07:37:20;;;;;;;13.88;10.93;;;;;;;13.13;78.75;101007.50;1806659;78;21384;-74
2021/04/15 07:40:35;;;;;;;16.95;11.48;;;;;;;13.25;78.77;101013.17;1774578;80;21356;-73
2021/04/15 07:43:22;;;;;;;;;;;;;;;13.33;78.44;101002.89;1787153;80;21182;-73
2021/04/15 07:46:29;;;;;;;13.00;9.43;;;;;;;13.35;77.70;101006.80;1775986;78;20242;-71
2021/04/15 07:49:12;;;;;;;13.40;7.67;;;;;;;13.30;77.28;101025.75;1781217;79;21301;-73
2021/04/15 07:52:10;;;;;;;11.38;7.45;;;;;;;13.23;77.00;101024.30;1778838;80;21276;-72
2021/04/15 07:55:22;;;;;;;9.43;7.37;;;;;;;13.13;77.21;101032.05;1777515;80;21799;-71
2021/04/15 07:58:34;;;;;;;10.73;7.40;;;;;;;13.01;77.35;101034.20;1801463;78;21384;-71
2021/04/15 08:01:18;;;;;;;12.30;7.90;;;;;;;12.83;77.82;101038.77;1786593;79;21715;-69
2021/04/15 08:04:01;;;;;;;9.58;6.72;;;;;;;12.68;78.34;101041.45;1756996;80;21365;-73
2021/04/15 08:06:44;;;;;;;12.23;7.33;;;;;;;12.60;78.70;101046.09;1783451;79;21336;-74
2021/04/15 08:09:24;;;;;;;;;;;;;;;12.53;79.01;101047.44;1794821;79;21162;-73
2021/04/15 08:12:18;;;;;;;14.00;8.83;;;;;;;12.50;79.57;101053.52;1764452;80;20628;-74
2021/04/15 08:15:19;;;;;;;15.35;9.65;;;;;;;12.47;79.67;101067.99;1774871;80;21179;-75
2021/04/15 08:18:22;;;;;;;11.22;7.37;;;;;;;12.42;79.55;101065.16;1787179;79;21197;-69
2021/04/15 08:21:15;;;;;;;15.85;9.03;;;;;;;12.36;79.50;101061.45;1772680;79;21179;-74
2021/04/15 08:24:15;;;;;;;13.18;8.20;;;;;;;12.27;79.58;101064.98;1787200;80;21333;-71
2021/04/15 08:27:35;;;;;;;14.30;9.10;;;;;;;12.19;79.71;101066.85;1788197;78;21171;-73
2021/04/15 08:30:36;;;;;;;11.68;8.33;;;;;;;12.05;80.09;101065.59;1773200;79;21735;-72
2021/04/15 08:33:28;;;;;;;12.23;8.55;;;;;;;12.04;80.57;101066.70;1772685;79;21329;-73
2021/04/15 08:36:21;;;;;;;12.07;8.10;;;;;;;12.09;80.77;101070.91;1772770;79;21901;-72
2021/04/15 08:39:00;;;;;;;13.15;7.58;;;;;;;12.15;80.79;101071.25;1775833;79;21241;-70
2021/04/15 08:42:02;;;;;;;12.68;6.17;;;;;;;12.21;80.60;101072.45;1773700;79;21340;-71
2021/04/15 08:44:51;;;;;;;8.90;5.95;;;;;;;12.31;80.37;101075.36;1772813;79;21729;-72
2021/04/15 08:47:56;;;;;;;6.87;4.85;;;;;;;12.41;80.02;101074.62;1774209;79;21330;-71
2021/04/15 08:50:57;;;;;;;9.50;5.62;;;;;;;12.49;79.39;101081.09;1779600;79;21332;-70
2021/04/15 08:54:01;;;;;;;10.55;5.92;;;;;;;12.43;78.86;101080.22;1784853;79;21339;-72
2021/04/15 08:56:51;;;;;;;7.25;5.25;;;;;;;12.41;79.04;101082.97;1799078;79;21392;-71
2021/04/15 08:59:54;;;;;;;7.12;4.97;;;;;;;12.39;78.68;101086.01;1744500;79;21197;-73
2021/04/15 09:03:07;;;;;;;10.50;6.37;;;;;;;12.34;78.50;101092.91;1769812;79;21242;-70
2021/04/15 09:06:03;;;;;;;9.70;5.75;;;;;;;12.36;78.67;101095.44;1727532;82;21383;-73
2021/04/15 09:08:58;;;;;;;12.30;6.03;;;;;;;12.36;78.73;101087.91;1759555;79;21300;-72
2021/04/15 09:11:40;;;;;;;13.62;5.60;;;;;;;12.46;79.05;101089.99;1770608;79;21249;-71
2021/04/15 09:14:47;;;;;;;8.40;4.95;;;;;;;12.54;78.90;101098.69;1785050;79;21673;-77
2021/04/15 09:17:39;;;;;;;10.90;6.50;;;;;;;12.58;78.59;101099.84;1790160;79;21219;-74
2021/04/15 09:20:38;;;;;;;16.50;8.20;;;;;;;12.55;78.10;101094.81;1756580;79;21627;-71
2021/04/15 09:23:46;;;;;;;12.37;7.78;;;;;;;12.46;78.11;101105.31;1738088;80;21466;-73
2021/04/15 09:26:35;;;;;;;9.98;6.17;;;;;;;12.40;78.20;101103.00;1806160;78;21802;-75
2021/04/15 09:29:32;;;;;;;10.20;7.45;;;;;;;12.39;78.02;101103.25;1762607;79;21202;-75
2021/04/15 09:32:33;;;;;;;14.98;7.78;;;;;;;12.32;78.15;101107.66;1781898;79;21750;-71
2021/04/15 09:35:46;;;;;;;14.93;8.15;;;;;;;12.30;78.15;101107.06;1772495;79;21226;-75
2021/04/15 09:39:02;;;;;;;12.25;8.15;;;;;;;12.32;78.53;101109.05;1785740;78;22498;-69
2021/04/15 09:41:51;;;;;;;14.58;6.25;;;;;;;12.38;78.57;101108.00;1800270;78;21170;-73
2021/04/15 09:45:00;;;;;;;9.70;7.00;;;;;;;12.40;78.38;101101.61;1782046;79;21329;-71
2021/04/15 09:47:51;;;;;;;13.83;7.70;;;;;;;12.40;78.26;101113.32;1800827;79;21305;-71
2021/04/15 09:50:57;;;;;;;19.35;8.05;;;;;;;12.39;78.05;101106.04;1800113;79;21356;-74
2021/04/15 09:54:03;;;;;;;17.82;6.50;;;;;;;12.33;78.08;101116.30;1791136;79;21209;-71
2021/04/15 09:56:54;;;;;;;;;;;;;;;12.26;78.18;101125.95;1787023;79;21423;-73
2021/04/15 09:59:51;;;;;;;19.15;8.80;;;;;;;12.18;78.35;101131.42;1819060;78;20175;-72
2021/04/15 10:03:09;;;;;;;14.40;6.50;;;;;;;12.17;78.67;101131.70;1768460;81;21317;-74
2021/04/15 10:06:28;;;;;;;13.65;6.40;;;;;;;12.19;78.78;101133.13;1796888;78;21304;-70
2021/04/15 10:09:20;;;;;;;12.25;6.12;;;;;;;12.25;78.66;101135.41;1707750;84;21353;-75
2021/04/15 10:12:38;;;;;;;10.98;6.67;;;;;;;12.37;78.88;101127.22;1736958;81;21331;-74
2021/04/15 10:15:52;;;;;;;11.80;6.33;;;;;;;12.58;79.16;101125.45;1816319;78;21222;-72
2021/04/15 10:19:01;;;;;;;8.73;4.95;;;;;;;12.88;77.99;101136.90;1803006;78;21321;-73
2021/04/15 10:21:53;;;;;;;9.55;5.95;;;;;;;13.08;76.91;101141.31;1798588;78;21272;-74
2021/04/15 10:24:41;;;;;;;8.48;5.60;;;;;;;13.17;75.50;101143.34;1798472;79;21313;-71
2021/04/15 10:27:37;;;;;;;10.98;5.05;;;;;;;13.12;75.00;101148.87;1799762;78;21376;-71
2021/04/15 10:30:50;;;;;;;11.05;6.97;;;;;;;13.09;74.52;101152.17;1774939;80;21186;-73
2021/04/15 10:34:02;;;;;;;9.00;4.87;;;;;;;13.00;74.20;101162.15;1775214;79;21364;-71
2021/04/15 10:37:17;;;;;;;14.27;7.23;;;;;;;12.87;74.19;101164.48;1788382;79;21249;-71
2021/04/15 10:40:03;;;;;;;14.60;7.10;;;;;;;12.82;74.44;101167.22;1777285;79;21163;-70
2021/04/15 10:43:23;;;;;;;11.40;6.95;;;;;;;12.76;74.43;101163.55;1762474;81;21384;-74
2021/04/15 10:46:23;;;;;;;13.03;7.85;;;;;;;12.78;74.78;101164.69;1764255;81;22126;-72
2021/04/15 10:49:35;;;;;;;13.25;8.80;;;;;;;12.75;74.65;101170.77;1768659;81;21316;-71
2021/04/15 10:52:33;;;;;;;10.68;8.18;;;;;;;12.72;74.74;101167.14;1767229;81;21166;-71
2021/04/15 10:55:25;;;;;;;14.25;7.17;;;;;;;12.74;75.00;101170.49;1766128;81;21312;-71
2021/04/15 10:57:58;;;;;;;12.95;8.40;;;;;;;12.79;74.95;101168.62;1743687;82;21133;-69
2021/04/15 11:00:34;;;;;;;16.30;7.97;;;;;;;12.85;74.56;101173.10;1723225;82;21168;-76
2021/04/15 11:03:19;;;;;;;14.95;9.40;;;;;;;12.90;74.37;101177.34;1744714;82;21224;-72
2021/04/15 11:05:55;;;;;;;13.28;8.45;;;;;;;12.91;74.37;101180.41;1744670;82;21372;-74
2021/04/15 11:08:30;;;;;;;12.68;6.92;;;;;;;12.91;74.22;101181.80;1744786;82;21336;-74
2021/04/15 11:11:29;;;;;;;11.68;7.15;;;;;;;12.93;73.97;101179.61;1744892;82;21193;-74
2021/04/15 11:14:06;;;;;;;8.85;6.65;;;;;;;12.95;73.73;101189.97;1755209;81;21213;-73
2021/04/15 11:16:38;;;;;;;22.10;7.55;;;;;;;12.99;73.56;101195.86;1744866;82;21220;-73
2021/04/15 11:19:13;;;;;;;22.67;7.20;;;;;;;13.04;73.35;101194.52;1760420;81;21343;-74
2021/04/15 11:21:48;;;;;;;19.20;8.13;;;;;;;13.04;73.28;101200.95;1746317;81;21169;-74
2021/04/15 11:24:35;;;;;;;21.02;8.18;;;;;;;13.06;73.26;101192.30;1744838;82;21682;-73
2021/04/15 11:27:08;;;;;;;26.07;8.90;;;;;;;13.07;73.36;101201.80;1744838;82;21670;-72
2021/04/15 11:29:45;;;;;;;29.63;11.50;;;;;;;13.10;73.18;101197.64;1744509;82;21639;-73
2021/04/15 11:32:34;;;;;;;21.07;10.82;;;;;;;13.11;72.90;101195.14;1741594;82;22357;-72
2021/04/15 11:35:20;;;;;;;13.20;7.75;;;;;;;13.04;72.76;101195.38;1744860;81;21149;-72
2021/04/15 11:38:07;;;;;;;11.83;8.03;;;;;;;12.98;72.79;101193.64;1744802;82;21157;-72
2021/04/15 11:40:47;;;;;;;12.35;7.53;;;;;;;12.93;72.75;101196.34;1743651;82;21346;-71
2021/04/15 11:43:38;;;;;;;11.03;7.45;;;;;;;12.93;72.65;101206.63;1744653;82;21261;-72
2021/04/15 11:46:35;;;;;;;13.53;8.83;;;;;;;12.85;72.62;101198.75;1744754;82;21236;-73
2021/04/15 11:49:35;;;;;;;20.80;9.48;;;;;;;12.79;72.86;101195.63;1715136;83;21313;-71
2021/04/15 11:52:18;;;;;;;11.48;8.53;;;;;;;12.71;72.81;101196.93;1744277;82;21133;-70
2021/04/15 11:55:00;;;;;;;14.05;8.73;;;;;;;12.66;73.13;101196.87;1744585;82;21681;-71
2021/04/15 11:58:02;;;;;;;14.87;8.23;;;;;;;12.61;73.19;101194.59;1744635;82;21889;-71
2021/04/15 12:00:40;;;;;;;13.25;8.83;;;;;;;12.58;73.59;101198.73;1746976;81;21295;-72
2021/04/15 12:03:20;;;;;;;12.68;8.78;;;;;;;12.58;73.81;101201.52;1765251;81;21381;-71
2021/04/15 12:05:52;;;;;;;15.58;8.70;;;;;;;12.57;73.71;101197.59;1766540;81;21246;-73
2021/04/15 12:08:37;;;;;;;13.45;8.53;;;;;;;12.54;73.57;101207.89;1765942;81;21324;-70
2021/04/15 12:11:20;;;;;;;14.45;7.75;;;;;;;12.53;73.58;101200.64;1762618;81;21728;-76
2021/04/15 12:14:13;;;;;;;14.98;8.15;;;;;;;12.48;73.45;101202.78;1768616;80;21245;-75
2021/04/15 12:17:00;;;;;;;10.05;7.67;;;;;;;12.45;73.57;101201.08;1772226;81;21201;-73
2021/04/15 12:20:01;;;;;;;14.13;7.80;;;;;;;12.43;73.79;101195.80;1770503;81;21213;-71
2021/04/15 12:23:16;;;;;;;12.75;8.83;;;;;;;12.41;73.89;101195.19;1769736;81;21222;-73
2021/04/15 12:26:03;;;;;;;11.50;8.75;;;;;;;12.38;73.91;101202.69;1762222;81;21257;-71
2021/04/15 12:28:47;;;;;;;13.15;8.40;;;;;;;12.32;73.73;101198.69;1764860;81;21929;-72
2021/04/15 12:31:37;;;;;;;11.38;8.13;;;;;;;12.24;73.68;101206.94;1768703;81;21333;-72
2021/04/15 12:34:57;;;;;;;18.02;10.20;;;;;;;12.20;73.85;101197.98;1765705;81;21221;-71
2021/04/15 12:38:11;;;;;;;13.22;8.60;;;;;;;12.20;73.92;101202.16;1769324;81;21336;-73
2021/04/15 12:40:47;;;;;;;16.70;9.95;;;;;;;12.26;73.98;101199.19;1766988;81;21672;-71
2021/04/15 12:43:30;;;;;;;16.77;10.10;;;;;;;12.31;73.98;101203.98;1767336;81;21210;-70
2021/04/15 12:46:10;;;;;;;15.32;9.80;;;;;;;12.28;73.80;101200.33;1774893;81;21187;-75
2021/04/15 12:48:57;;;;;;;12.70;9.55;;;;;;;12.23;73.97;101208.05;1774868;81;21771;-70
2021/04/15 12:51:37;;;;;;;16.45;12.18;;;;;;;12.20;73.88;101203.02;1774895;81;21225;-74
2021/04/15 12:54:18;;;;;;;21.60;12.28;;;;;;;12.13;74.10;101203.76;1775080;81;21197;-70
2021/04/15 12:56:59;;;;;;;15.53;11.25;;;;;;;12.13;74.10;101217.67;1725386;81;21373;-68